Richmond International Airport
KRIC : now visible

Airfield :











YOU CAN JOIN US ON...

 
LOGIN :

Register | Disclaimer

   EN    FR    IT 

 









Legend :    VFR   Marginal VFR   IFR   Intensive IFR   Very Intensive IFR
Visi :
Ceiling :
>= 8 km
>= 3000ft
5 to 8 km
1000 to 3000 ft
1500m to 5 km
500 to 1000 ft
800 to 1500m
200 to 500 ft
< 800m
< 200 ft
Symbols :   Thunderstorms  Fog  Heavy snow  Heavy precipitations  Wind > 20 kt






- Airport Elevation : 167 ft
- IATA code : RIC


KRIC - Richmond International

CURRENT METAR :
  • 070954Z 00000KT 10SM FEW200 07/05 A2990 RMK AO2 SLP128 T00670050

EXPIRED METARs :
  • 070854Z 00000KT 10SM CLR 08/06 A2991 RMK AO2 SLP132 T00780061 56013
  • 070754Z 00000KT 10SM CLR 08/06 A2992 RMK AO2 SLP135 T00780061

TAF KRIC
Valid from the 07 at 06:00 until the 08 at 06:00 UTC


070521Z 0706/0806 VRB03KT P6SM SKC
FM071500 16005KT P6SM VCSH BKN120
FM071800 21006KT 4SM SHRA BKN060
FM072000 25007KT 4SM SHRA OVC035
FM080000 34007KT P6SM BKN020
FM080200 34006KT P6SM SCT060
FM080500 29004KT P6SM SKC
KZDC FIR / North America



MET'MAP, your aeronautical weather chart ! - Copyright ORBIFLY December 2007 - Disclaimer

ORBIFLY MET'MAP TEAM :

Programming & Development : Alexandra Zaïnal
Concept & original design : Baudouin d'Aumeries
Assistance for programming : Marc-Olivier Méhu
Technical & hardware support : Manuel Goepfert

Contact : metmap@orbifly.com




SOURCES & CREDITS :

   NOAA       Earth
Advisory